Allenville, Missouri
Current Conditions -  °F | °C
As of 9:53 PM on Saturday 22 Nov 2014 (Local Time) from KCGI Reporting Station
Clear Clear  
Wind Chill: 53°   Ceiling: Unl
Heat Index: 53°   Visibility: 10mi
Dew Point: 41°   Wind: 9mph
Humidity: 64%   Direction: 170°S
Pressure: 29.97"   Gusts: NA
Location:  37.1651°N, 89.623°W
Report Text: KCGI 230353Z AUTO 17008KT 10SM CLR 12/05 A2997 RMK AO2 SLP149 T01170050 TSNO
Loading
Personal Weather Stations






























Interactive Weather Map New forecast layout! Learn more

10-Day Weather Forecast

Advertisements
Track Severe Weather on mobile